sensor_id;sensor_type;location;lat;lon;timestamp;pressure;altitude;pressure_sealevel;temperature;humidity
10881;BME280;5493;48.884;8.338;2022-07-06T00:01:11;100817.22;;;20.07;100.00
10881;BME280;5493;48.884;8.338;2022-07-06T00:03:37;100815.28;;;20.08;100.00
10881;BME280;5493;48.884;8.338;2022-07-06T00:06:05;100820.78;;;20.13;100.00
10881;BME280;5493;48.884;8.338;2022-07-06T00:08:32;100818.84;;;20.03;100.00
10881;BME280;5493;48.884;8.338;2022-07-06T00:10:58;100814.44;;;20.02;100.00
10881;BME280;5493;48.884;8.338;2022-07-06T00:13:25;100817.69;;;19.89;100.00
10881;BME280;5493;48.884;8.338;2022-07-06T00:15:52;100819.63;;;19.99;100.00
10881;BME280;5493;48.884;8.338;2022-07-06T00:18:18;100818.28;;;20.11;100.00
10881;BME280;5493;48.884;8.338;2022-07-06T00:20:45;100823.75;;;20.01;100.00
10881;BME280;5493;48.884;8.338;2022-07-06T00:23:13;100828.72;;;20.09;100.00
10881;BME280;5493;48.884;8.338;2022-07-06T00:25:40;100826.78;;;20.00;100.00
10881;BME280;5493;48.884;8.338;2022-07-06T00:28:06;100823.44;;;19.88;100.00
10881;BME280;5493;48.884;8.338;2022-07-06T00:30:33;100828.41;;;20.01;100.00
10881;BME280;5493;48.884;8.338;2022-07-06T00:32:59;100827.06;;;20.08;100.00
10881;BME280;5493;48.884;8.338;2022-07-06T00:35:26;100825.97;;;20.09;100.00
10881;BME280;5493;48.884;8.338;2022-07-06T00:37:53;100835.56;;;20.07;100.00
10881;BME280;5493;48.884;8.338;2022-07-06T00:40:21;100838.50;;;20.00;100.00
10881;BME280;5493;48.884;8.338;2022-07-06T00:42:48;100843.50;;;20.13;100.00
10881;BME280;5493;48.884;8.338;2022-07-06T00:45:16;100838.00;;;20.08;100.00
10881;BME280;5493;48.884;8.338;2022-07-06T00:47:44;100842.66;;;20.03;100.00
10881;BME280;5493;48.884;8.338;2022-07-06T00:50:12;100839.13;;;20.07;100.00
10881;BME280;5493;48.884;8.338;2022-07-06T00:52:45;100841.53;;;19.99;100.00
10881;BME280;5493;48.884;8.338;2022-07-06T00:55:13;100834.44;;;20.08;100.00
10881;BME280;5493;48.884;8.338;2022-07-06T00:57:42;100835.28;;;20.13;100.00
10881;BME280;5493;48.884;8.338;2022-07-06T01:00:11;100834.94;;;19.95;100.00
10881;BME280;5493;48.884;8.338;2022-07-06T01:02:40;100834.72;;;20.06;100.00
10881;BME280;5493;48.884;8.338;2022-07-06T01:05:08;100834.75;;;20.17;100.00
10881;BME280;5493;48.884;8.338;2022-07-06T01:07:36;100825.94;;;19.99;100.00
10881;BME280;5493;48.884;8.338;2022-07-06T01:10:03;100835.28;;;20.03;100.00
10881;BME280;5493;48.884;8.338;2022-07-06T01:12:30;100832.81;;;20.07;100.00
10881;BME280;5493;48.884;8.338;2022-07-06T01:14:58;100823.75;;;19.96;100.00
10881;BME280;5493;48.884;8.338;2022-07-06T01:17:25;100824.59;;;20.07;100.00
10881;BME280;5493;48.884;8.338;2022-07-06T01:19:52;100824.81;;;19.95;100.00
10881;BME280;5493;48.884;8.338;2022-07-06T01:22:20;100826.97;;;19.83;100.00
10881;BME280;5493;48.884;8.338;2022-07-06T01:24:46;100816.34;;;19.92;100.00
10881;BME280;5493;48.884;8.338;2022-07-06T01:27:13;100816.31;;;19.87;100.00
10881;BME280;5493;48.884;8.338;2022-07-06T01:29:39;100812.72;;;19.81;100.00
10881;BME280;5493;48.884;8.338;2022-07-06T01:32:06;100821.94;;;19.65;100.00
10881;BME280;5493;48.884;8.338;2022-07-06T01:34:34;100814.91;;;19.74;100.00
10881;BME280;5493;48.884;8.338;2022-07-06T01:37:00;100822.50;;;19.62;100.00
10881;BME280;5493;48.884;8.338;2022-07-06T01:39:28;100820.91;;;19.71;100.00
10881;BME280;5493;48.884;8.338;2022-07-06T01:41:55;100820.03;;;19.65;100.00
10881;BME280;5493;48.884;8.338;2022-07-06T01:44:21;100815.44;;;19.76;100.00
10881;BME280;5493;48.884;8.338;2022-07-06T01:46:48;100819.50;;;19.69;100.00
10881;BME280;5493;48.884;8.338;2022-07-06T01:49:14;100814.47;;;19.45;100.00
10881;BME280;5493;48.884;8.338;2022-07-06T01:51:41;100816.19;;;19.61;100.00
10881;BME280;5493;48.884;8.338;2022-07-06T01:54:07;100816.44;;;19.55;100.00
10881;BME280;5493;48.884;8.338;2022-07-06T01:56:35;100819.50;;;19.69;100.00
10881;BME280;5493;48.884;8.338;2022-07-06T01:59:02;100822.16;;;19.53;100.00
10881;BME280;5493;48.884;8.338;2022-07-06T02:01:28;100824.34;;;19.51;100.00
10881;BME280;5493;48.884;8.338;2022-07-06T02:03:54;100835.06;;;19.58;100.00
10881;BME280;5493;48.884;8.338;2022-07-06T02:06:21;100842.50;;;19.68;100.00
10881;BME280;5493;48.884;8.338;2022-07-06T02:08:48;100834.75;;;19.54;100.00
10881;BME280;5493;48.884;8.338;2022-07-06T02:11:16;100831.47;;;19.57;100.00
10881;BME280;5493;48.884;8.338;2022-07-06T02:13:44;100834.50;;;19.56;100.00
10881;BME280;5493;48.884;8.338;2022-07-06T02:16:11;100827.63;;;19.48;100.00
10881;BME280;5493;48.884;8.338;2022-07-06T02:18:38;100827.41;;;19.60;100.00
10881;BME280;5493;48.884;8.338;2022-07-06T02:21:05;100833.78;;;19.34;100.00
10881;BME280;5493;48.884;8.338;2022-07-06T02:23:32;100827.03;;;19.46;100.00
10881;BME280;5493;48.884;8.338;2022-07-06T02:25:58;100837.91;;;19.36;100.00
10881;BME280;5493;48.884;8.338;2022-07-06T02:28:24;100837.47;;;19.12;100.00
10881;BME280;5493;48.884;8.338;2022-07-06T02:30:52;100833.75;;;19.29;100.00
10881;BME280;5493;48.884;8.338;2022-07-06T02:33:19;100840.03;;;19.24;100.00
10881;BME280;5493;48.884;8.338;2022-07-06T02:35:45;100837.47;;;19.12;100.00
10881;BME280;5493;48.884;8.338;2022-07-06T02:38:12;100838.97;;;19.30;100.00
10881;BME280;5493;48.884;8.338;2022-07-06T02:40:39;100834.50;;;19.19;100.00
10881;BME280;5493;48.884;8.338;2022-07-06T02:43:05;100836.13;;;19.15;100.00
10881;BME280;5493;48.884;8.338;2022-07-06T02:45:32;100839.69;;;19.15;100.00
10881;BME280;5493;48.884;8.338;2022-07-06T02:48:00;100843.41;;;19.04;100.00
10881;BME280;5493;48.884;8.338;2022-07-06T02:50:27;100850.09;;;19.18;100.00
10881;BME280;5493;48.884;8.338;2022-07-06T02:52:53;100844.56;;;19.08;100.00
10881;BME280;5493;48.884;8.338;2022-07-06T02:55:20;100844.25;;;19.05;100.00
10881;BME280;5493;48.884;8.338;2022-07-06T02:57:46;100846.44;;;19.08;100.00
10881;BME280;5493;48.884;8.338;2022-07-06T03:00:13;100854.50;;;19.25;100.00
10881;BME280;5493;48.884;8.338;2022-07-06T03:02:40;100855.53;;;19.13;100.00
10881;BME280;5493;48.884;8.338;2022-07-06T03:05:08;100858.00;;;18.83;100.00
10881;BME280;5493;48.884;8.338;2022-07-06T03:07:35;100856.50;;;18.97;100.00
10881;BME280;5493;48.884;8.338;2022-07-06T03:10:01;100863.75;;;19.13;100.00
10881;BME280;5493;48.884;8.338;2022-07-06T03:12:28;100865.06;;;19.11;100.00
10881;BME280;5493;48.884;8.338;2022-07-06T03:14:54;100870.44;;;19.01;100.00
10881;BME280;5493;48.884;8.338;2022-07-06T03:17:21;100869.53;;;19.22;100.00
10881;BME280;5493;48.884;8.338;2022-07-06T03:19:47;100879.19;;;18.98;100.00
10881;BME280;5493;48.884;8.338;2022-07-06T03:22:15;100877.81;;;19.00;100.00
10881;BME280;5493;48.884;8.338;2022-07-06T03:24:42;100880.25;;;18.65;100.00
10881;BME280;5493;48.884;8.338;2022-07-06T03:27:08;100883.19;;;18.58;100.00
10881;BME280;5493;48.884;8.338;2022-07-06T03:29:35;100880.97;;;18.55;100.00
10881;BME280;5493;48.884;8.338;2022-07-06T03:32:01;100872.28;;;18.37;100.00
10881;BME280;5493;48.884;8.338;2022-07-06T03:34:28;100876.38;;;18.39;100.00
10881;BME280;5493;48.884;8.338;2022-07-06T03:36:54;100875.00;;;18.37;100.00
10881;BME280;5493;48.884;8.338;2022-07-06T03:39:22;100877.72;;;18.37;100.00
10881;BME280;5493;48.884;8.338;2022-07-06T03:41:49;100867.47;;;18.22;100.00
10881;BME280;5493;48.884;8.338;2022-07-06T03:44:16;100875.97;;;18.26;100.00
10881;BME280;5493;48.884;8.338;2022-07-06T03:46:43;100870.41;;;18.15;100.00
10881;BME280;5493;48.884;8.338;2022-07-06T03:49:09;100873.50;;;18.02;100.00
10881;BME280;5493;48.884;8.338;2022-07-06T03:51:36;100871.06;;;18.06;100.00
10881;BME280;5493;48.884;8.338;2022-07-06T03:54:03;100873.94;;;17.94;100.00
10881;BME280;5493;48.884;8.338;2022-07-06T03:56:30;100875.34;;;17.97;100.00
10881;BME280;5493;48.884;8.338;2022-07-06T03:59:00;100882.50;;;18.03;100.00
10881;BME280;5493;48.884;8.338;2022-07-06T04:01:27;100875.78;;;18.10;100.00
10881;BME280;5493;48.884;8.338;2022-07-06T04:03:55;100883.22;;;18.15;100.00
10881;BME280;5493;48.884;8.338;2022-07-06T04:06:21;100886.50;;;17.95;100.00
10881;BME280;5493;48.884;8.338;2022-07-06T04:08:48;100890.09;;;17.57;100.00
10881;BME280;5493;48.884;8.338;2022-07-06T04:11:14;100887.88;;;17.76;100.00
10881;BME280;5493;48.884;8.338;2022-07-06T04:13:42;100894.03;;;17.66;100.00
10881;BME280;5493;48.884;8.338;2022-07-06T04:16:09;100893.00;;;17.73;100.00
10881;BME280;5493;48.884;8.338;2022-07-06T04:18:35;100885.56;;;18.06;100.00
10881;BME280;5493;48.884;8.338;2022-07-06T04:21:02;100895.09;;;18.04;100.00
10881;BME280;5493;48.884;8.338;2022-07-06T04:23:29;100890.19;;;18.06;100.00
10881;BME280;5493;48.884;8.338;2022-07-06T04:25:55;100897.28;;;18.07;100.00
10881;BME280;5493;48.884;8.338;2022-07-06T04:28:22;100893.38;;;18.46;100.00
10881;BME280;5493;48.884;8.338;2022-07-06T04:30:50;100895.59;;;18.49;100.00
10881;BME280;5493;48.884;8.338;2022-07-06T04:33:16;100905.50;;;18.77;100.00
10881;BME280;5493;48.884;8.338;2022-07-06T04:35:43;100905.63;;;18.92;100.00
10881;BME280;5493;48.884;8.338;2022-07-06T04:38:09;100901.50;;;19.22;100.00
10881;BME280;5493;48.884;8.338;2022-07-06T04:40:36;100909.31;;;19.40;100.00
10881;BME280;5493;48.884;8.338;2022-07-06T04:43:02;100906.38;;;19.88;100.00
10881;BME280;5493;48.884;8.338;2022-07-06T04:45:29;100910.41;;;20.28;100.00
10881;BME280;5493;48.884;8.338;2022-07-06T04:47:57;100909.06;;;20.40;100.00
10881;BME280;5493;48.884;8.338;2022-07-06T04:50:24;100923.78;;;20.24;100.00
10881;BME280;5493;48.884;8.338;2022-07-06T04:52:50;100914.31;;;20.47;100.00
10881;BME280;5493;48.884;8.338;2022-07-06T04:55:17;100912.22;;;20.99;100.00
10881;BME280;5493;48.884;8.338;2022-07-06T04:57:43;100908.34;;;20.85;100.00
10881;BME280;5493;48.884;8.338;2022-07-06T05:00:11;100911.41;;;21.04;100.00
10881;BME280;5493;48.884;8.338;2022-07-06T05:02:37;100906.16;;;21.02;100.00
10881;BME280;5493;48.884;8.338;2022-07-06T05:05:06;100907.28;;;20.86;100.00
10881;BME280;5493;48.884;8.338;2022-07-06T05:07:34;100905.09;;;21.39;100.00
10881;BME280;5493;48.884;8.338;2022-07-06T05:10:05;100916.06;;;21.59;100.00
10881;BME280;5493;48.884;8.338;2022-07-06T05:12:32;100914.78;;;22.26;100.00
10881;BME280;5493;48.884;8.338;2022-07-06T05:14:58;100921.19;;;22.06;100.00
10881;BME280;5493;48.884;8.338;2022-07-06T05:17:25;100914.63;;;22.56;100.00
10881;BME280;5493;48.884;8.338;2022-07-06T05:19:51;100919.84;;;21.78;100.00
10881;BME280;5493;48.884;8.338;2022-07-06T05:22:19;100913.59;;;21.52;100.00
10881;BME280;5493;48.884;8.338;2022-07-06T05:24:46;100919.31;;;21.71;100.00
10881;BME280;5493;48.884;8.338;2022-07-06T05:27:12;100912.69;;;21.97;100.00
10881;BME280;5493;48.884;8.338;2022-07-06T05:29:39;100920.13;;;22.56;100.00
10881;BME280;5493;48.884;8.338;2022-07-06T05:32:06;100923.09;;;22.75;100.00
10881;BME280;5493;48.884;8.338;2022-07-06T05:34:33;100919.38;;;23.28;100.00
10881;BME280;5493;48.884;8.338;2022-07-06T05:37:01;100926.44;;;23.39;100.00
10881;BME280;5493;48.884;8.338;2022-07-06T05:39:29;100926.22;;;23.31;100.00
10881;BME280;5493;48.884;8.338;2022-07-06T05:41:56;100932.16;;;23.14;100.00
10881;BME280;5493;48.884;8.338;2022-07-06T05:44:22;100930.28;;;23.72;100.00
10881;BME280;5493;48.884;8.338;2022-07-06T05:46:49;100931.75;;;23.88;100.00
10881;BME280;5493;48.884;8.338;2022-07-06T05:49:15;100933.75;;;23.54;100.00
10881;BME280;5493;48.884;8.338;2022-07-06T05:51:59;100932.56;;;23.31;100.00
10881;BME280;5493;48.884;8.338;2022-07-06T05:54:26;100935.22;;;24.65;100.00
10881;BME280;5493;48.884;8.338;2022-07-06T05:56:54;100926.34;;;23.78;100.00
10881;BME280;5493;48.884;8.338;2022-07-06T05:59:20;100933.81;;;24.68;100.00
10881;BME280;5493;48.884;8.338;2022-07-06T06:01:47;100936.31;;;24.27;100.00
10881;BME280;5493;48.884;8.338;2022-07-06T06:04:13;100939.78;;;23.56;100.00
10881;BME280;5493;48.884;8.338;2022-07-06T06:06:40;100946.78;;;24.01;100.00
10881;BME280;5493;48.884;8.338;2022-07-06T06:09:06;100941.41;;;24.15;100.00
10881;BME280;5493;48.884;8.338;2022-07-06T06:11:33;100944.88;;;23.44;100.00
10881;BME280;5493;48.884;8.338;2022-07-06T06:14:00;100941.63;;;23.94;100.00
10881;BME280;5493;48.884;8.338;2022-07-06T06:16:27;100942.56;;;24.09;100.00
10881;BME280;5493;48.884;8.338;2022-07-06T06:18:54;100948.69;;;24.90;100.00
10881;BME280;5493;48.884;8.338;2022-07-06T06:21:20;100940.47;;;25.55;97.95
10881;BME280;5493;48.884;8.338;2022-07-06T06:23:47;100944.03;;;25.88;95.08
10881;BME280;5493;48.884;8.338;2022-07-06T06:26:13;100946.75;;;25.61;93.62
10881;BME280;5493;48.884;8.338;2022-07-06T06:28:40;100940.63;;;25.77;92.11
10881;BME280;5493;48.884;8.338;2022-07-06T06:31:08;100935.63;;;26.07;96.20
10881;BME280;5493;48.884;8.338;2022-07-06T06:33:34;100944.19;;;24.76;99.83
10881;BME280;5493;48.884;8.338;2022-07-06T06:36:01;100943.28;;;24.62;100.00
10881;BME280;5493;48.884;8.338;2022-07-06T06:38:27;100944.94;;;25.83;92.83
10881;BME280;5493;48.884;8.338;2022-07-06T06:40:55;100954.28;;;25.36;98.15
10881;BME280;5493;48.884;8.338;2022-07-06T06:43:21;100943.91;;;25.79;93.08
10881;BME280;5493;48.884;8.338;2022-07-06T06:45:48;100949.63;;;25.18;94.27
10881;BME280;5493;48.884;8.338;2022-07-06T06:48:15;100948.97;;;24.70;99.54
10881;BME280;5493;48.884;8.338;2022-07-06T06:50:44;100954.59;;;24.84;100.00
10881;BME280;5493;48.884;8.338;2022-07-06T06:53:11;100952.56;;;24.89;96.36
10881;BME280;5493;48.884;8.338;2022-07-06T06:55:37;100953.22;;;24.39;98.66
10881;BME280;5493;48.884;8.338;2022-07-06T06:58:04;100953.38;;;25.09;97.98
10881;BME280;5493;48.884;8.338;2022-07-06T07:00:30;100952.28;;;24.67;100.00
10881;BME280;5493;48.884;8.338;2022-07-06T07:02:57;100951.25;;;24.44;100.00
10881;BME280;5493;48.884;8.338;2022-07-06T07:05:25;100955.66;;;24.64;97.66
10881;BME280;5493;48.884;8.338;2022-07-06T07:07:52;100954.81;;;24.64;99.88
10881;BME280;5493;48.884;8.338;2022-07-06T07:10:20;100959.47;;;25.43;95.92
10881;BME280;5493;48.884;8.338;2022-07-06T07:12:47;100945.91;;;26.20;90.98
10881;BME280;5493;48.884;8.338;2022-07-06T07:15:13;100940.28;;;26.25;87.44
10881;BME280;5493;48.884;8.338;2022-07-06T07:17:40;100945.94;;;25.60;90.93
10881;BME280;5493;48.884;8.338;2022-07-06T07:20:08;100952.13;;;25.52;92.33
10881;BME280;5493;48.884;8.338;2022-07-06T07:22:36;100949.25;;;26.17;89.19
10881;BME280;5493;48.884;8.338;2022-07-06T07:25:04;100942.91;;;26.03;89.78
10881;BME280;5493;48.884;8.338;2022-07-06T07:27:30;100941.31;;;25.69;94.24
10881;BME280;5493;48.884;8.338;2022-07-06T07:29:57;100944.97;;;25.51;94.89
10881;BME280;5493;48.884;8.338;2022-07-06T07:32:23;100939.38;;;25.05;94.15
10881;BME280;5493;48.884;8.338;2022-07-06T07:34:50;100939.78;;;25.12;97.14
10881;BME280;5493;48.884;8.338;2022-07-06T07:37:17;100945.53;;;25.48;94.19
10881;BME280;5493;48.884;8.338;2022-07-06T07:39:44;100934.56;;;25.62;96.00
10881;BME280;5493;48.884;8.338;2022-07-06T07:42:11;100939.44;;;26.11;94.97
10881;BME280;5493;48.884;8.338;2022-07-06T07:44:37;100941.50;;;25.59;92.83
10881;BME280;5493;48.884;8.338;2022-07-06T07:47:04;100950.31;;;26.21;92.46
10881;BME280;5493;48.884;8.338;2022-07-06T07:49:31;100942.50;;;26.50;85.74
10881;BME280;5493;48.884;8.338;2022-07-06T07:51:57;100941.81;;;26.31;91.04
10881;BME280;5493;48.884;8.338;2022-07-06T07:54:24;100938.16;;;25.76;91.00
10881;BME280;5493;48.884;8.338;2022-07-06T07:56:52;100935.50;;;25.71;91.20
10881;BME280;5493;48.884;8.338;2022-07-06T07:59:19;100944.72;;;25.80;90.92
10881;BME280;5493;48.884;8.338;2022-07-06T08:01:45;100934.91;;;25.87;90.82
10881;BME280;5493;48.884;8.338;2022-07-06T08:04:12;100939.06;;;26.94;89.54
10881;BME280;5493;48.884;8.338;2022-07-06T08:06:38;100930.75;;;28.00;79.43
10881;BME280;5493;48.884;8.338;2022-07-06T08:09:05;100932.66;;;27.52;81.34
10881;BME280;5493;48.884;8.338;2022-07-06T08:11:32;100937.38;;;26.30;90.18
10881;BME280;5493;48.884;8.338;2022-07-06T08:14:00;100926.28;;;27.07;84.78
10881;BME280;5493;48.884;8.338;2022-07-06T08:16:27;100930.56;;;26.90;84.32
10881;BME280;5493;48.884;8.338;2022-07-06T08:18:54;100932.34;;;26.59;87.57
10881;BME280;5493;48.884;8.338;2022-07-06T08:21:20;100924.03;;;27.31;81.87
10881;BME280;5493;48.884;8.338;2022-07-06T08:23:47;100926.09;;;27.25;86.54
10881;BME280;5493;48.884;8.338;2022-07-06T08:26:13;100921.41;;;27.57;79.59
10881;BME280;5493;48.884;8.338;2022-07-06T08:28:40;100925.53;;;27.37;80.30
10881;BME280;5493;48.884;8.338;2022-07-06T08:31:08;100929.03;;;28.69;74.40
10881;BME280;5493;48.884;8.338;2022-07-06T08:33:34;100938.00;;;28.66;74.59
10881;BME280;5493;48.884;8.338;2022-07-06T08:36:01;100934.63;;;28.95;74.23
10881;BME280;5493;48.884;8.338;2022-07-06T08:38:27;100932.91;;;28.43;70.23
10881;BME280;5493;48.884;8.338;2022-07-06T08:40:54;100932.09;;;28.42;75.34
10881;BME280;5493;48.884;8.338;2022-07-06T08:43:22;100935.56;;;28.08;73.79
10881;BME280;5493;48.884;8.338;2022-07-06T08:45:50;100933.34;;;26.63;81.28
10881;BME280;5493;48.884;8.338;2022-07-06T08:48:23;100929.38;;;26.69;85.98
10881;BME280;5493;48.884;8.338;2022-07-06T08:50:50;100926.97;;;26.90;83.58
10881;BME280;5493;48.884;8.338;2022-07-06T08:53:18;100935.75;;;28.86;76.18
10881;BME280;5493;48.884;8.338;2022-07-06T08:55:45;100932.75;;;28.56;72.50
10881;BME280;5493;48.884;8.338;2022-07-06T08:58:11;100945.50;;;28.66;73.95
10881;BME280;5493;48.884;8.338;2022-07-06T09:00:39;100942.00;;;27.64;76.57
10881;BME280;5493;48.884;8.338;2022-07-06T09:03:07;100942.16;;;28.21;71.68
10881;BME280;5493;48.884;8.338;2022-07-06T09:05:39;100947.03;;;28.89;65.29
10881;BME280;5493;48.884;8.338;2022-07-06T09:08:06;100951.81;;;28.01;69.88
10881;BME280;5493;48.884;8.338;2022-07-06T09:10:32;100959.13;;;28.84;66.11
10881;BME280;5493;48.884;8.338;2022-07-06T09:13:03;100952.25;;;29.42;61.29
10881;BME280;5493;48.884;8.338;2022-07-06T09:15:30;100952.31;;;28.43;69.38
10881;BME280;5493;48.884;8.338;2022-07-06T09:17:57;100955.84;;;29.25;62.00
10881;BME280;5493;48.884;8.338;2022-07-06T09:20:24;100953.09;;;28.82;68.20
10881;BME280;5493;48.884;8.338;2022-07-06T09:22:56;100957.97;;;28.68;70.70
10881;BME280;5493;48.884;8.338;2022-07-06T09:25:24;100957.63;;;28.87;64.06
10881;BME280;5493;48.884;8.338;2022-07-06T09:27:50;100949.88;;;29.87;62.00
10881;BME280;5493;48.884;8.338;2022-07-06T09:30:20;100952.09;;;28.22;62.94
10881;BME280;5493;48.884;8.338;2022-07-06T09:32:49;100953.75;;;28.31;71.91
10881;BME280;5493;48.884;8.338;2022-07-06T09:35:20;100962.88;;;28.89;66.63
10881;BME280;5493;48.884;8.338;2022-07-06T09:37:47;100959.28;;;29.31;62.77
10881;BME280;5493;48.884;8.338;2022-07-06T09:40:19;100953.53;;;30.17;57.75
10881;BME280;5493;48.884;8.338;2022-07-06T09:42:46;100960.28;;;30.37;55.04
10881;BME280;5493;48.884;8.338;2022-07-06T09:45:12;100961.34;;;28.57;71.23
10881;BME280;5493;48.884;8.338;2022-07-06T09:47:39;100963.47;;;27.81;69.44
10881;BME280;5493;48.884;8.338;2022-07-06T09:50:15;100962.22;;;29.17;61.67
10881;BME280;5493;48.884;8.338;2022-07-06T09:52:53;100968.81;;;30.32;55.97
10881;BME280;5493;48.884;8.338;2022-07-06T09:55:21;100968.63;;;30.74;53.07
10881;BME280;5493;48.884;8.338;2022-07-06T09:57:54;100968.47;;;30.04;51.55
10881;BME280;5493;48.884;8.338;2022-07-06T10:00:21;100970.88;;;29.50;56.80
10881;BME280;5493;48.884;8.338;2022-07-06T10:02:48;100965.47;;;28.85;60.62
10881;BME280;5493;48.884;8.338;2022-07-06T10:05:16;100974.78;;;28.98;56.73
10881;BME280;5493;48.884;8.338;2022-07-06T10:07:43;100974.84;;;29.32;54.34
10881;BME280;5493;48.884;8.338;2022-07-06T10:10:10;100970.63;;;28.52;64.16
10881;BME280;5493;48.884;8.338;2022-07-06T10:12:39;100972.25;;;28.62;60.50
10881;BME280;5493;48.884;8.338;2022-07-06T10:15:08;100971.72;;;29.34;57.13
10881;BME280;5493;48.884;8.338;2022-07-06T10:17:36;100973.00;;;29.02;63.08
10881;BME280;5493;48.884;8.338;2022-07-06T10:20:05;100972.84;;;28.98;58.31
10881;BME280;5493;48.884;8.338;2022-07-06T10:22:34;100974.03;;;30.04;52.55
10881;BME280;5493;48.884;8.338;2022-07-06T10:25:01;100965.16;;;30.10;50.62
10881;BME280;5493;48.884;8.338;2022-07-06T10:27:29;100965.97;;;30.78;53.21
10881;BME280;5493;48.884;8.338;2022-07-06T10:29:57;100972.81;;;30.60;52.65
10881;BME280;5493;48.884;8.338;2022-07-06T10:32:24;100966.44;;;30.80;54.08
10881;BME280;5493;48.884;8.338;2022-07-06T10:34:51;100960.78;;;30.09;53.49
10881;BME280;5493;48.884;8.338;2022-07-06T10:37:23;100961.09;;;28.27;64.24
10881;BME280;5493;48.884;8.338;2022-07-06T10:39:51;100964.31;;;28.77;62.44
10881;BME280;5493;48.884;8.338;2022-07-06T10:42:39;100960.91;;;28.80;57.92
10881;BME280;5493;48.884;8.338;2022-07-06T10:45:08;100958.13;;;29.49;58.74
10881;BME280;5493;48.884;8.338;2022-07-06T10:47:35;100958.91;;;30.81;58.61
10881;BME280;5493;48.884;8.338;2022-07-06T10:50:03;100954.56;;;30.92;53.75
10881;BME280;5493;48.884;8.338;2022-07-06T10:52:48;100952.72;;;30.96;48.62
10881;BME280;5493;48.884;8.338;2022-07-06T10:55:30;100958.09;;;30.51;54.12
10881;BME280;5493;48.884;8.338;2022-07-06T10:57:57;100956.88;;;29.93;55.63
10881;BME280;5493;48.884;8.338;2022-07-06T11:00:25;100953.06;;;30.06;52.51
10881;BME280;5493;48.884;8.338;2022-07-06T11:02:52;100950.28;;;30.06;53.99
10881;BME280;5493;48.884;8.338;2022-07-06T11:05:40;100960.09;;;29.49;60.04
10881;BME280;5493;48.884;8.338;2022-07-06T11:08:09;100938.88;;;30.28;52.34
10881;BME280;5493;48.884;8.338;2022-07-06T11:10:46;100940.81;;;29.44;57.81
10881;BME280;5493;48.884;8.338;2022-07-06T11:13:25;100944.16;;;27.98;63.66
10881;BME280;5493;48.884;8.338;2022-07-06T11:16:00;100937.09;;;29.95;65.31
10881;BME280;5493;48.884;8.338;2022-07-06T11:18:27;100936.34;;;30.53;55.97
10881;BME280;5493;48.884;8.338;2022-07-06T11:21:15;100941.59;;;29.61;55.85
10881;BME280;5493;48.884;8.338;2022-07-06T11:23:42;100950.66;;;28.33;60.66
10881;BME280;5493;48.884;8.338;2022-07-06T11:26:10;100939.00;;;30.03;57.42
10881;BME280;5493;48.884;8.338;2022-07-06T11:28:37;100942.25;;;29.58;60.37
10881;BME280;5493;48.884;8.338;2022-07-06T11:31:05;100931.66;;;29.26;59.68
10881;BME280;5493;48.884;8.338;2022-07-06T11:33:32;100935.72;;;29.54;58.61
10881;BME280;5493;48.884;8.338;2022-07-06T11:36:11;100929.19;;;29.59;61.59
10881;BME280;5493;48.884;8.338;2022-07-06T11:38:38;100922.28;;;29.65;60.45
10881;BME280;5493;48.884;8.338;2022-07-06T11:41:05;100920.38;;;30.33;61.61
10881;BME280;5493;48.884;8.338;2022-07-06T11:43:31;100915.84;;;29.81;62.05
10881;BME280;5493;48.884;8.338;2022-07-06T11:45:58;100913.34;;;29.42;61.72
10881;BME280;5493;48.884;8.338;2022-07-06T11:48:26;100921.78;;;29.63;57.91
10881;BME280;5493;48.884;8.338;2022-07-06T11:51:02;100916.72;;;27.88;66.94
10881;BME280;5493;48.884;8.338;2022-07-06T11:53:30;100920.19;;;28.59;66.60
10881;BME280;5493;48.884;8.338;2022-07-06T11:56:01;100919.72;;;27.25;74.36
10881;BME280;5493;48.884;8.338;2022-07-06T11:58:29;100912.84;;;26.28;82.73
10881;BME280;5493;48.884;8.338;2022-07-06T12:01:04;100914.63;;;27.18;78.34
10881;BME280;5493;48.884;8.338;2022-07-06T12:03:32;100910.53;;;28.39;73.88
10881;BME280;5493;48.884;8.338;2022-07-06T12:06:00;100911.81;;;28.24;71.70
10881;BME280;5493;48.884;8.338;2022-07-06T12:08:27;100909.38;;;29.60;60.56
10881;BME280;5493;48.884;8.338;2022-07-06T12:10:53;100900.78;;;29.02;60.21
10881;BME280;5493;48.884;8.338;2022-07-06T12:13:20;100904.41;;;28.85;61.01
10881;BME280;5493;48.884;8.338;2022-07-06T12:15:47;100897.13;;;27.93;69.12
10881;BME280;5493;48.884;8.338;2022-07-06T12:18:13;100897.69;;;28.95;67.21
10881;BME280;5493;48.884;8.338;2022-07-06T12:20:41;100892.28;;;27.99;66.93
10881;BME280;5493;48.884;8.338;2022-07-06T12:23:08;100887.22;;;27.61;66.27
10881;BME280;5493;48.884;8.338;2022-07-06T12:25:36;100880.41;;;27.14;75.76
10881;BME280;5493;48.884;8.338;2022-07-06T12:28:03;100887.56;;;28.73;65.29
10881;BME280;5493;48.884;8.338;2022-07-06T12:30:30;100876.66;;;28.68;65.40
10881;BME280;5493;48.884;8.338;2022-07-06T12:33:13;100885.41;;;28.44;63.74
10881;BME280;5493;48.884;8.338;2022-07-06T12:35:43;100893.00;;;27.73;65.87
10881;BME280;5493;48.884;8.338;2022-07-06T12:38:09;100881.53;;;28.97;62.71
10881;BME280;5493;48.884;8.338;2022-07-06T12:40:36;100882.47;;;29.81;57.87
10881;BME280;5493;48.884;8.338;2022-07-06T12:43:04;100879.84;;;29.94;55.33
10881;BME280;5493;48.884;8.338;2022-07-06T12:45:31;100877.78;;;30.61;55.47
10881;BME280;5493;48.884;8.338;2022-07-06T12:47:59;100874.88;;;30.58;53.68
10881;BME280;5493;48.884;8.338;2022-07-06T12:50:34;100864.28;;;30.72;53.73
10881;BME280;5493;48.884;8.338;2022-07-06T12:53:03;100876.25;;;29.21;55.26
10881;BME280;5493;48.884;8.338;2022-07-06T12:55:31;100873.06;;;28.67;58.81
10881;BME280;5493;48.884;8.338;2022-07-06T12:57:58;100863.94;;;29.56;53.86